Round Valley, Utah
Current Conditions -  °F | °C
As of 3:51 AM on Thursday 23 Oct 2014 (Local Time) from KLGU Reporting Station
Clear Clear  
Wind Chill: 32°   Ceiling: Unl
Heat Index: 32°   Visibility: 10mi
Dew Point: 28°   Wind: 0mph
Humidity: 85%   Direction: NA
Pressure: 30.17"   Gusts: NA
Location:  41.8508°N, 111.23°W
Report Text: KLGU 230951Z AUTO 00000KT 10SM CLR 00/M02 A3017 RMK AO2 SLP206 T00001022 TSNO
Loading
Personal Weather Stations






























Interactive Weather Map
Tropical Storm Tracking
New forecast layout! Learn more

10-Day Weather Forecast

Advertisements
Track Severe Weather on mobile